createdAt,value
2022-11-22T00:00:33.291Z,93222.53
2022-11-22T00:05:36.472Z,93224.50
2022-11-22T00:10:39.751Z,93206.94
2022-11-22T00:15:43.188Z,93221.34
2022-11-22T00:20:47.038Z,93215.06
2022-11-22T00:25:50.745Z,93221.97
2022-11-22T00:30:54.311Z,93203.88
2022-11-22T00:35:58.273Z,93187.50
2022-11-22T00:41:01.978Z,93167.13
2022-11-22T00:46:05.474Z,93170.31
2022-11-22T00:51:09.171Z,93162.22
2022-11-22T00:56:13.519Z,93161.78
2022-11-22T01:01:17.143Z,93147.31
2022-11-22T01:06:20.438Z,93149.28
2022-11-22T01:11:24.251Z,93139.53
2022-11-22T01:16:27.409Z,93147.00
2022-11-22T01:21:30.883Z,93136.81
2022-11-22T01:26:35.345Z,93130.53
2022-11-22T01:31:38.388Z,93130.09
2022-11-22T01:36:42.222Z,93104.28
2022-11-22T01:41:45.652Z,93100.66
2022-11-22T01:46:52.341Z,93099.28
2022-11-22T01:52:01.083Z,93103.22
2022-11-22T01:57:09.367Z,93112.78
2022-11-22T02:02:13.714Z,93089.00
2022-11-22T02:07:42.375Z,93071.34
2022-11-22T02:12:46.554Z,93068.50
2022-11-22T02:17:50.307Z,93044.97
2022-11-22T02:23:02.341Z,93041.47
2022-11-22T02:28:05.901Z,93053.56
2022-11-22T02:33:09.455Z,93049.66
2022-11-22T02:38:25.410Z,93024.38
2022-11-22T02:43:37.997Z,93010.59
2022-11-22T02:48:42.523Z,93005.44
2022-11-22T02:53:47.506Z,92984.53
2022-11-22T02:58:51.420Z,92978.16
2022-11-22T03:03:54.982Z,92980.81
2022-11-22T03:08:59.120Z,92956.59
2022-11-22T03:14:03.196Z,92956.06
2022-11-22T03:19:07.210Z,92950.91
2022-11-22T03:24:11.476Z,92951.78
2022-11-22T03:29:25.088Z,92968.34
2022-11-22T03:34:28.151Z,92921.97
2022-11-22T03:39:32.209Z,92949.75
2022-11-22T03:44:35.838Z,92930.22
2022-11-22T03:49:39.398Z,92894.63
2022-11-22T03:54:42.479Z,92886.16
2022-11-22T03:59:45.942Z,92893.13
2022-11-22T04:04:49.936Z,92884.25
2022-11-22T04:09:53.656Z,92882.94
2022-11-22T04:15:07.339Z,92893.47
2022-11-22T04:20:39.209Z,92867.59
2022-11-22T04:25:46.743Z,92850.19
2022-11-22T04:31:09.898Z,92855.66
2022-11-22T04:36:13.538Z,92805.09
2022-11-22T04:41:16.957Z,92854.16
2022-11-22T04:46:20.058Z,92854.19
2022-11-22T04:51:42.782Z,92807.56
2022-11-22T04:56:45.996Z,92842.09
2022-11-22T05:01:49.307Z,92853.56
2022-11-22T05:06:52.689Z,92851.13
2022-11-22T05:11:56.900Z,92850.16
2022-11-22T05:16:59.941Z,92859.38
2022-11-22T05:22:03.434Z,92845.06
2022-11-22T05:27:06.573Z,92817.44
2022-11-22T05:32:10.905Z,92823.88
2022-11-22T05:37:14.850Z,92825.16
2022-11-22T05:42:18.736Z,92819.22
2022-11-22T05:47:22.623Z,92827.13
2022-11-22T05:52:26.305Z,92792.41
2022-11-22T05:57:29.954Z,92741.06
2022-11-22T06:02:33.598Z,92733.88
2022-11-22T06:07:37.417Z,92716.00
2022-11-22T06:12:40.898Z,92752.59
2022-11-22T06:17:44.543Z,92721.81
2022-11-22T06:22:48.669Z,92736.44
2022-11-22T06:27:51.897Z,92727.72
2022-11-22T06:32:55.955Z,92730.34
2022-11-22T06:38:01.050Z,92716.34
2022-11-22T06:43:04.837Z,92734.69
2022-11-22T06:48:08.603Z,92726.44
2022-11-22T06:53:32.307Z,92700.50
2022-11-22T06:58:36.719Z,92668.22
2022-11-22T07:03:41.440Z,92664.19
2022-11-22T07:08:46.072Z,92657.31
2022-11-22T07:13:50.862Z,92633.53
2022-11-22T07:18:54.835Z,92650.94
2022-11-22T07:23:58.217Z,92642.78
2022-11-22T07:29:01.338Z,92641.25
2022-11-22T07:34:04.849Z,92625.25
2022-11-22T07:39:08.010Z,92587.56
2022-11-22T07:44:11.849Z,92596.72
2022-11-22T07:49:15.011Z,92568.47
2022-11-22T07:54:18.588Z,92558.94
2022-11-22T07:59:22.118Z,92557.22
2022-11-22T08:04:25.639Z,92570.50
2022-11-22T08:09:29.292Z,92560.28
2022-11-22T08:14:32.699Z,92565.44
2022-11-22T08:19:36.258Z,92567.25
2022-11-22T08:24:39.631Z,92595.66
2022-11-22T08:29:43.193Z,92590.56
2022-11-22T08:34:47.505Z,92601.94
2022-11-22T08:39:50.721Z,92571.53
2022-11-22T08:44:54.320Z,92549.59
2022-11-22T08:49:57.790Z,92540.00
2022-11-22T08:55:01.805Z,92527.88
2022-11-22T09:00:06.978Z,92518.66
2022-11-22T09:05:10.305Z,92518.41
2022-11-22T09:10:13.706Z,92504.34
2022-11-22T09:15:17.129Z,92537.06
2022-11-22T09:20:20.334Z,92518.47
2022-11-22T09:25:23.509Z,92501.72
2022-11-22T09:30:27.131Z,92490.06
2022-11-22T09:35:30.851Z,92491.69
2022-11-22T09:40:34.901Z,92488.28
2022-11-22T09:45:46.968Z,92466.66
2022-11-22T09:50:59.680Z,92471.03
2022-11-22T09:56:10.063Z,92463.78
2022-11-22T10:01:23.116Z,92447.63
2022-11-22T10:06:46.141Z,92425.00
2022-11-22T10:12:04.080Z,92416.81
2022-11-22T10:17:49.642Z,92415.41
2022-11-22T10:22:53.453Z,92381.94
2022-11-22T10:28:01.230Z,92396.81
2022-11-22T10:33:04.356Z,92413.84
2022-11-22T10:38:33.297Z,92419.06
2022-11-22T10:44:15.627Z,92398.31
2022-11-22T10:49:54.368Z,92379.16
2022-11-22T10:55:45.307Z,92371.59
2022-11-22T11:01:00.527Z,92363.88
2022-11-22T11:06:26.638Z,92372.41
2022-11-22T11:11:39.128Z,92357.28
2022-11-22T11:16:43.273Z,92345.81
2022-11-22T11:21:48.012Z,92346.16
2022-11-22T11:26:55.032Z,92366.63
2022-11-22T11:32:07.575Z,92387.47
2022-11-22T11:37:43.931Z,92381.97
2022-11-22T11:42:47.426Z,92367.81
2022-11-22T11:47:50.751Z,92352.06
2022-11-22T11:53:06.487Z,92350.25
2022-11-22T11:58:35.838Z,92365.63
2022-11-22T12:03:39.423Z,92334.13
2022-11-22T12:08:43.254Z,92318.44
2022-11-22T12:19:25.948Z,92312.91
2022-11-22T12:25:02.630Z,92297.38
2022-11-22T12:30:13.723Z,92297.69
2022-11-22T12:35:24.635Z,92281.59
2022-11-22T12:40:34.371Z,92300.34
2022-11-22T12:45:43.321Z,92293.03
2022-11-22T12:50:49.848Z,92293.16
2022-11-22T12:55:57.459Z,92305.13
2022-11-22T13:01:17.725Z,92284.06
2022-11-22T13:06:25.432Z,92299.91
2022-11-22T13:11:51.256Z,92314.53
2022-11-22T13:16:54.659Z,92325.50
2022-11-22T13:22:22.615Z,92317.31
2022-11-22T13:27:44.648Z,92327.97
2022-11-22T13:33:00.251Z,92337.28
2022-11-22T13:38:14.748Z,92326.63
2022-11-22T13:43:22.332Z,92335.34
2022-11-22T13:48:41.421Z,92337.44
2022-11-22T13:53:49.448Z,92341.94
2022-11-22T13:59:04.854Z,92327.13
2022-11-22T14:04:16.989Z,92324.16
2022-11-22T14:09:29.215Z,92334.31
2022-11-22T14:14:35.030Z,92348.19
2022-11-22T14:19:47.433Z,92359.00
2022-11-22T14:25:16.207Z,92350.63
2022-11-22T14:30:23.171Z,92341.38
2022-11-22T14:35:30.310Z,92337.03
2022-11-22T14:40:40.018Z,92370.03
2022-11-22T14:45:56.206Z,92375.28
2022-11-22T14:51:07.563Z,92377.47
2022-11-22T14:56:35.375Z,92400.97
2022-11-22T15:01:49.716Z,92419.09
2022-11-22T15:09:16.474Z,92416.72
2022-11-22T15:12:44.169Z,92434.53
2022-11-22T16:01:51.208Z,92524.88
2022-11-22T16:06:57.232Z,92529.69
2022-11-22T16:12:03.256Z,92534.88
2022-11-22T16:17:31.886Z,92548.13
2022-11-22T16:22:34.983Z,92533.09
2022-11-22T16:27:46.949Z,92527.56
2022-11-22T16:32:54.061Z,92569.50
2022-11-22T16:37:58.057Z,92560.72
2022-11-22T16:43:05.426Z,92548.56
2022-11-22T16:48:32.640Z,92510.06
2022-11-22T16:53:47.423Z,92520.13
2022-11-22T16:58:51.471Z,92505.59
2022-11-22T17:03:56.970Z,92507.34
2022-11-22T17:09:01.085Z,92517.75
2022-11-22T17:14:04.689Z,92512.56
2022-11-22T17:19:14.556Z,92525.44
2022-11-22T17:24:31.851Z,92550.94
2022-11-22T17:29:49.704Z,92545.06
2022-11-22T17:34:53.684Z,92505.22
2022-11-22T17:39:57.670Z,92568.53
2022-11-22T17:45:01.569Z,92573.53
2022-11-22T17:50:05.608Z,92580.53
2022-11-22T17:55:14.249Z,92572.19
2022-11-22T18:00:18.121Z,92567.84
2022-11-22T18:05:21.555Z,92559.59
2022-11-22T18:10:24.638Z,92573.25
2022-11-22T18:15:28.152Z,92575.19
2022-11-22T18:20:31.279Z,92556.63
2022-11-22T18:25:37.518Z,92584.03
2022-11-22T18:30:42.814Z,92573.13
2022-11-22T18:41:09.606Z,92573.50
2022-11-22T18:46:12.765Z,92576.34
2022-11-22T18:51:15.998Z,92598.09
2022-11-22T18:56:19.583Z,92613.06
2022-11-22T19:01:26.623Z,92605.75
2022-11-22T19:06:29.898Z,92617.06
2022-11-22T19:11:33.950Z,92628.16
2022-11-22T19:16:37.592Z,92637.56
2022-11-22T19:21:41.133Z,92647.69
2022-11-22T19:26:44.572Z,92632.84
2022-11-22T19:31:47.936Z,92640.72
2022-11-22T19:36:51.270Z,92653.19
2022-11-22T19:41:55.102Z,92654.34
2022-11-22T19:46:58.779Z,92663.78
2022-11-22T19:52:02.299Z,92658.31
2022-11-22T19:57:05.395Z,92675.06
2022-11-22T20:02:09.708Z,92694.97
2022-11-22T20:07:13.697Z,92706.34
2022-11-22T20:12:17.529Z,92720.34
2022-11-22T20:17:20.972Z,92723.44
2022-11-22T20:22:24.490Z,92730.47
2022-11-22T20:27:29.578Z,92737.47
2022-11-22T20:32:33.838Z,92735.13
2022-11-22T20:37:37.574Z,92738.63
2022-11-22T20:42:40.946Z,92755.34
2022-11-22T20:47:44.484Z,92756.09
2022-11-22T20:52:48.368Z,92766.63
2022-11-22T20:57:52.015Z,92764.69
2022-11-22T21:02:55.500Z,92772.88
2022-11-22T21:08:02.425Z,92753.00
2022-11-22T21:13:08.826Z,92767.41
2022-11-22T21:18:28.379Z,92762.38
2022-11-22T21:23:32.329Z,92754.59
2022-11-22T21:28:38.724Z,92752.25
2022-11-22T21:33:43.249Z,92747.56
2022-11-22T21:38:47.241Z,92736.25
2022-11-22T21:43:50.883Z,92735.91
2022-11-22T21:48:56.157Z,92751.47
2022-11-22T21:54:00.699Z,92751.88
2022-11-22T21:59:04.599Z,92751.47
2022-11-22T22:04:07.609Z,92762.38
2022-11-22T22:09:11.033Z,92774.06
2022-11-22T22:14:15.412Z,92778.72
2022-11-22T22:19:19.056Z,92797.00
2022-11-22T22:24:22.261Z,92797.75
2022-11-22T22:29:26.133Z,92795.41
2022-11-22T22:34:29.910Z,92729.66
2022-11-22T22:39:33.335Z,92791.94
2022-11-22T22:44:36.841Z,92795.06
2022-11-22T22:49:40.516Z,92785.72
2022-11-22T22:54:44.785Z,92776.38
2022-11-22T22:59:47.965Z,92785.31
2022-11-22T23:04:51.485Z,92790.78
2022-11-22T23:09:54.515Z,92799.72
2022-11-22T23:14:57.936Z,92804.38
2022-11-22T23:20:01.479Z,92776.34
2022-11-22T23:25:05.718Z,92802.00
2022-11-22T23:30:09.953Z,92796.09
2022-11-22T23:35:13.050Z,92800.06
2022-11-22T23:40:16.528Z,92803.59
2022-11-22T23:45:21.184Z,92802.81
2022-11-22T23:50:25.218Z,92803.63
2022-11-22T23:55:28.640Z,92799.72
